Riviera Beach, Texas
Current Conditions -  °F | °C
As of 6:56 PM on Friday 19 Dec 2014 (Local Time) from KNQI Reporting Station
Overcast Overcast  
Wind Chill: 61°   Ceiling: 2600
Heat Index: 61°   Visibility: 10mi
Dew Point: 58°   Wind: 8mph
Humidity: 90%   Direction: 10°N
Pressure: 30.07"   Gusts: NA
Location:  27.3193°N, 97.8839°W
Report Text: KNQI 200056Z AUTO 01007KT 10SM OVC026 16/14 A3007 RMK AO2 SLP179 T01610144
Loading
Personal Weather Stations






























Interactive Weather Map New forecast layout! Learn more

10-Day Weather Forecast

Advertisements
Track Severe Weather on mobile